• Join FlightAware (Why Join?)
  • Login
  • US Flag 
04:37AM EST


 

Airport Tracker/Info


-or-


 

Live Flight TrackerFlight Track Log ✈ SWA4963 ✈ 31-May-2013 ✈ KBWI - KMHT

Flight Track Log - Related Links

Times and Time Zones

All times are in EDT time to prevent confusion due to time zone crossing. See the SWA4963 flight status page for this flight to view local times or setup timezone preferences in your user account.

Time Position Orientation Groundspeed Altitude Reporting Facility
EDT Latitude Longitude Course Direction KTS MPH feet Rate Location/Type
08:40PM 39.1436 -76.7156 93° East 205 236 2,800  Level Washington Center
08:41PM 39.1403 -76.6325 93° East 211 243 5,300 2,940 Climbing Washington Center
08:42PM 39.1411 -76.5308 89° East 232 267 8,800 3,120 Climbing Washington Center
08:43PM 39.1439 -76.4211 88° East 259 298 11,500 3,120 Climbing Washington Center
08:44PM 39.1469 -76.2900 88° East 305 351 15,000 3,180 Climbing Washington Center
08:45PM 39.1600 -76.1536 83° East 342 394 17,900 2,940 Climbing Washington Center
08:46PM 39.1772 -76.0172 81° East 375 432 21,000 2,700 Climbing Washington Center
08:47PM 39.2028 -75.8700 77° East 393 452 23,400 2,520 Climbing Washington Center
08:48PM 39.2842 -75.7658 45° Northeast 399 459 26,000 2,340 Climbing Washington Center
08:49PM 39.3781 -75.6747 37° Northeast 399 459 28,100 1,980 Climbing Washington Center
08:50PM 39.4803 -75.5889 33° Northeast 410 472 30,100 2,220 Climbing Washington Center
08:51PM 39.5781 -75.5000 35° Northeast 426 490 32,600 2,100 Climbing Washington Center
08:53PM 39.7814 -75.3306 33° Northeast 419 482 36,700 1,380 Climbing New York Center
08:54PM 39.8786 -75.2478 33° Northeast 419 482 37,000 120 Climbing New York Center
08:55PM 39.9756 -75.1592 35° Northeast 414 476 37,000  Level New York Center
08:56PM 40.0706 -75.0728 35° Northeast 414 476 37,000  Level New York Center
08:57PM 40.1631 -74.9917 34° Northeast 414 476 37,000  Level New York Center
08:58PM 40.2619 -74.9106 32° Northeast 414 476 37,000  Level New York Center
08:59PM 40.3678 -74.8597 20° North 407 468 37,000  Level New York Center
09:00PM 40.4778 -74.8117 18° North 407 468 37,000  Level New York Center
09:01PM 40.5878 -74.7636 18° North 407 468 37,000  Level New York Center
09:02PM 40.6978 -74.7153 18° North 407 468 37,000  Level New York Center
09:03PM 40.8097 -74.6697 17° North 407 468 37,000  Level New York Center
09:04PM 40.9197 -74.6211 18° North 407 468 37,000  Level New York Center
09:06PM 41.1581 -74.5161 18° North 425 489 37,000  Level Boston Center
09:07PM 41.2714 -74.4700 17° North 425 489 37,000  Level Boston Center
09:08PM 41.3825 -74.4239 17° North 425 489 37,000  Level Boston Center
09:09PM 41.4919 -74.3689 21° North 425 489 37,000 -300 Level Boston Center
09:10PM 41.6094 -74.3225 16° North 430 495 36,500 -780 Descending Boston Center
09:11PM 41.7186 -74.2731 19° North 424 488 35,500 -960 Descending Boston Center
09:12PM 41.8131 -74.2339 17° North 418 481 34,700 -900 Descending Boston Center
09:13PM 41.9264 -74.1786 20° North 418 481 33,800 -960 Descending Boston Center
09:14PM 42.0053 -74.0578 49° Northeast 413 475 32,800 -960 Descending Boston Center
09:15PM 42.0700 -73.9139 59° Northeast 418 481 31,900 -960 Descending Boston Center
09:16PM 42.1361 -73.7700 58° Northeast 430 495 30,900 -1,200 Descending Boston Center
09:17PM 42.2067 -73.6144 58° Northeast 446 513 29,600 -1,200 Descending Boston Center
09:18PM 42.2686 -73.4753 59° Northeast 441 507 28,600 -900 Descending Boston Center
09:19PM 42.3194 -73.3667 58° Northeast 436 502 27,800 -1,200 Descending Boston Center
09:20PM 42.3894 -73.2047 60° Northeast 428 493 26,200 -1,620 Descending Boston Center
09:21PM 42.4508 -73.0703 58° Northeast 422 486 24,600 -1,800 Descending Boston Center
09:22PM 42.5078 -72.9386 60° Northeast 417 480 22,700 -1,800 Descending Boston Center
09:23PM 42.5644 -72.8122 59° Northeast 407 468 21,100 -1,560 Descending Boston Center
09:24PM 42.6211 -72.6800 60° Northeast 401 461 19,600 -1,740 Descending Boston Center
09:25PM 42.6775 -72.5586 58° Northeast 395 455 17,700 -2,100 Descending Boston Center
09:26PM 42.7317 -72.4372 59° Northeast 385 443 15,500 -2,100 Descending Boston Center
09:27PM 42.7858 -72.3156 59° Northeast 375 432 13,500 -1,980 Descending Boston Center
09:28PM 42.8003 -72.1994 80° East 349 402 11,600 -1,680 Descending Boston Center
09:29PM 42.8125 -72.0581 83° East 344 396 10,200 -1,380 Descending Boston Center
09:30PM 42.8100 -71.9506 92° East 318 366 8,900 -1,500 Descending Boston Center
09:31PM 42.8011 -71.8289 96° East 305 351 7,300 -1,560 Descending Boston Center
09:32PM 42.7942 -71.7328 96° East 287 330 5,800 -1,800 Descending Boston Center
09:33PM 42.7892 -71.6197 93° East 275 316 3,700 -1,560 Descending Boston Center
09:34PM 42.7864 -71.5292 92° East 275 316 2,700 -900 Descending Boston Center
09:35PM 42.7856 -71.4331 91° East 244 281 2,000 -360 Descending Boston Center
09:36PM 42.8100 -71.3703 62° Northeast 191 220 2,000 -180 Level Boston Center
09:37PM 42.8497 -71.3839 346° North 124 143 1,700 -480 Descending Boston Center
09:38PM 42.8814 -71.4031 336° Northwest 124 143 1,100 -720 Descending Boston Center
09:39PM 42.9211 -71.4281 335° Northwest 135 155 300 -420 Descending Boston Center
09:40PM 42.9525 -71.4472 336° Northwest 135 155 300 10,320 Level Boston Center
09:41PM 42.9903 -71.4664 340° North 135 155 21,000 20,700 Climbing Boston Center
09:43PM 42.9328 -71.4358 180° South  Level Estimated
09:50PM 42.9328 -71.4358 180° South  Level Estimated
09:51PM 42.9328 -71.4358 180° South  Level Estimated
09:52PM 42.9328 -71.4358 180° South  Level Estimated
09:53PM 42.9328 -71.4358 180° South  Level Estimated
09:54PM 42.9328 -71.4358 180° South  Level Estimated
09:55PM 42.9328 -71.4358 180° South  Level Estimated
09:56PM 42.9328 -71.4358 180° South  Level Estimated
09:57PM 42.9328 -71.4358 180° South  Level Estimated